Time;durP1;ratioP1;P1;durP2;ratioP2;P2;SDS_P1;SDS_P2;PMS_P1;PMS_P2;Temp;Humidity;BMP_temperature;BMP_pressure;BME280_temperature;BME280_humidity;BME280_pressure;Samples;Min_cycle;Max_cycle;Signal;HPM_P1;HPM_P2
2022/11/28 00:02:23;;;;;;;10.50;4.33;;;;;;;5.04;93.25;101034.22;6043984;28;20417;-70
2022/11/28 00:05:19;;;;;;;13.27;4.47;;;;;;;5.03;94.17;101040.44;6045484;28;20062;-71
2022/11/28 00:08:14;;;;;;;12.17;5.57;;;;;;;5.05;94.65;101038.53;6046449;28;20036;-70
2022/11/28 00:11:12;;;;;;;14.07;4.90;;;;;;;4.97;94.97;101030.31;6049297;28;20045;-71
2022/11/28 00:14:08;;;;;;;12.13;5.32;;;;;;;5.01;95.44;101042.28;6049578;28;20034;-70
2022/11/28 00:17:04;;;;;;;12.18;4.70;;;;;;;5.00;95.36;101014.34;6049386;28;20034;-70
2022/11/28 00:19:59;;;;;;;10.87;4.67;;;;;;;4.94;95.71;100985.84;6049433;28;20469;-71
2022/11/28 00:22:54;;;;;;;13.43;4.70;;;;;;;4.87;95.90;100963.53;6048543;28;20613;-71
2022/11/28 00:26:01;;;;;;;13.97;4.70;;;;;;;4.78;96.45;100954.53;6049060;28;20399;-71
2022/11/28 00:28:57;;;;;;;12.40;4.80;;;;;;;4.78;97.31;100971.09;6048435;28;20061;-70
2022/11/28 00:31:52;;;;;;;10.52;4.82;;;;;;;4.70;97.76;100962.06;6048689;28;20025;-70
2022/11/28 00:34:48;;;;;;;10.93;4.43;;;;;;;4.64;97.76;100973.84;6049287;28;20574;-70
2022/11/28 00:37:43;;;;;;;14.53;5.53;;;;;;;4.67;98.61;100984.09;6049183;28;20499;-70
2022/11/28 00:40:39;;;;;;;11.97;5.70;;;;;;;4.53;98.61;100971.06;6050533;28;20586;-71
2022/11/28 00:43:34;;;;;;;15.25;6.03;;;;;;;4.54;98.40;100958.78;6053645;28;20026;-70
2022/11/28 00:46:29;;;;;;;11.73;4.50;;;;;;;4.44;98.06;100929.66;6048768;28;20034;-69
2022/11/28 00:49:25;;;;;;;12.10;5.03;;;;;;;4.62;98.18;100959.13;6048643;28;20034;-71
2022/11/28 00:52:20;;;;;;;12.45;5.43;;;;;;;4.67;97.18;100962.28;6047728;28;20273;-70
2022/11/28 00:55:16;;;;;;;11.23;4.83;;;;;;;4.68;96.50;100946.41;6048829;28;20029;-69
2022/11/28 00:58:11;;;;;;;10.60;4.68;;;;;;;4.67;96.18;100952.59;6048057;28;20033;-70
2022/11/28 01:01:12;;;;;;;11.67;4.10;;;;;;;4.72;95.39;100934.75;6047908;28;20120;-70
2022/11/28 01:04:09;;;;;;;10.80;4.70;;;;;;;4.68;95.30;100930.66;6046865;28;20053;-70
2022/11/28 01:07:05;;;;;;;9.95;3.85;;;;;;;4.70;94.11;100951.56;6047712;28;20032;-70
2022/11/28 01:10:00;;;;;;;10.55;4.38;;;;;;;4.62;94.35;100948.63;6047905;28;20034;-72
2022/11/28 01:12:55;;;;;;;10.80;3.37;;;;;;;4.65;93.98;100954.47;6047331;28;20168;-71
2022/11/28 01:15:51;;;;;;;9.10;3.50;;;;;;;4.68;94.25;100980.56;6048238;28;20030;-71
2022/11/28 01:18:46;;;;;;;11.80;4.57;;;;;;;4.72;94.54;100983.81;6047755;28;20033;-71
2022/11/28 01:21:42;;;;;;;10.48;4.43;;;;;;;4.58;95.37;100950.59;6047163;28;20037;-70
2022/11/28 01:24:37;;;;;;;11.27;4.47;;;;;;;4.59;95.83;100933.88;6047891;28;20036;-70
2022/11/28 01:27:32;;;;;;;10.97;4.40;;;;;;;4.70;95.37;100962.91;6047441;28;20358;-72
2022/11/28 01:30:28;;;;;;;9.17;4.13;;;;;;;4.62;95.12;100933.69;6047474;28;20061;-70
2022/11/28 01:33:23;;;;;;;8.17;3.63;;;;;;;4.64;95.14;100947.56;6047433;28;20292;-70
2022/11/28 01:36:19;;;;;;;10.33;4.00;;;;;;;4.63;94.90;100929.28;6047724;28;20077;-70
2022/11/28 01:39:14;;;;;;;9.75;3.92;;;;;;;4.59;94.90;100912.88;6035152;28;20096;-72
2022/11/28 01:42:19;;;;;;;9.87;3.70;;;;;;;4.61;94.52;100921.50;6046644;28;20037;-70
2022/11/28 01:45:20;;;;;;;11.05;3.90;;;;;;;4.62;94.55;100925.78;6047683;28;20049;-71
2022/11/28 01:48:24;;;;;;;7.05;3.47;;;;;;;4.58;94.60;100919.09;6047107;28;20485;-69
2022/11/28 01:51:20;;;;;;;12.38;4.50;;;;;;;4.58;93.91;100923.50;6061853;28;20149;-71
2022/11/28 01:54:18;;;;;;;10.02;3.88;;;;;;;4.58;94.57;100915.63;6045817;28;20041;-71
2022/11/28 01:57:19;;;;;;;14.90;4.50;;;;;;;4.55;94.79;100915.81;6046386;28;20032;-71
2022/11/28 02:00:17;;;;;;;11.13;3.83;;;;;;;4.52;95.13;100911.63;6046090;28;20037;-72
2022/11/28 02:03:20;;;;;;;9.65;4.15;;;;;;;4.44;95.28;100913.06;6047305;28;20033;-71
2022/11/28 02:06:18;;;;;;;8.90;3.78;;;;;;;4.49;95.00;100913.59;6045416;28;20037;-70
2022/11/28 02:09:15;;;;;;;8.98;3.65;;;;;;;4.42;94.84;100905.31;6045468;28;20116;-70
2022/11/28 02:12:21;;;;;;;9.05;3.63;;;;;;;4.47;95.36;100905.00;6046331;28;20029;-71
2022/11/28 02:15:36;;;;;;;10.82;4.75;;;;;;;4.47;95.77;100907.63;6044847;28;20034;-71
2022/11/28 02:18:39;;;;;;;9.60;4.63;;;;;;;4.34;96.00;100872.63;6045454;28;20038;-70
2022/11/28 02:21:45;;;;;;;8.88;4.05;;;;;;;4.34;96.49;100864.75;6045638;28;20041;-69
2022/11/28 02:25:10;;;;;;;11.23;4.65;;;;;;;4.36;96.16;100863.69;6046874;28;20038;-71
2022/11/28 02:28:43;;;;;;;9.55;3.90;;;;;;;4.40;97.00;100922.94;6050134;28;20049;-72
2022/11/28 02:32:05;;;;;;;10.57;3.70;;;;;;;4.37;97.50;100854.91;6036684;28;20034;-71
2022/11/28 02:35:29;;;;;;;9.98;4.15;;;;;;;4.37;98.32;100896.06;6046611;28;20065;-71
2022/11/28 02:39:02;;;;;;;10.98;4.28;;;;;;;4.26;98.90;100865.28;6043016;28;20060;-71
2022/11/28 02:42:13;;;;;;;8.57;3.50;;;;;;;4.25;98.76;100875.84;6034655;28;20053;-72
2022/11/28 02:45:13;;;;;;;11.25;3.95;;;;;;;4.08;99.34;100837.59;6045170;28;20037;-73
2022/11/28 02:48:24;;;;;;;11.57;4.85;;;;;;;4.08;100.00;100866.47;6044302;28;20040;-73
2022/11/28 02:51:31;;;;;;;8.40;4.03;;;;;;;4.05;100.00;100879.81;6044028;28;20042;-73
2022/11/28 02:54:26;;;;;;;10.82;4.18;;;;;;;4.01;100.00;100845.06;6045068;28;20030;-72
2022/11/28 02:57:21;;;;;;;8.38;3.70;;;;;;;4.02;100.00;100832.78;6044699;28;20088;-72
2022/11/28 03:00:27;;;;;;;8.93;3.50;;;;;;;3.96;100.00;100797.31;6045735;28;20676;-72
2022/11/28 03:03:39;;;;;;;11.88;5.43;;;;;;;4.05;100.00;100794.06;6044859;28;20045;-72
2022/11/28 03:06:42;;;;;;;9.80;4.10;;;;;;;3.99;100.00;100801.50;6044677;28;20460;-72
2022/11/28 03:09:51;;;;;;;9.73;3.90;;;;;;;4.04;100.00;100867.63;6045954;28;20036;-72
2022/11/28 03:13:03;;;;;;;13.20;4.57;;;;;;;4.10;100.00;100862.00;6044652;28;20105;-71
2022/11/28 03:16:12;;;;;;;12.57;4.68;;;;;;;4.07;100.00;100859.56;6046514;28;20397;-72
2022/11/28 03:19:26;;;;;;;10.25;4.30;;;;;;;4.08;100.00;100832.34;6045700;28;20026;-72
2022/11/28 03:22:24;;;;;;;13.98;6.10;;;;;;;4.07;100.00;100825.44;6045056;28;20104;-71
2022/11/28 03:25:34;;;;;;;8.48;3.65;;;;;;;3.96;100.00;100818.28;6045628;28;20034;-71
2022/11/28 03:28:34;;;;;;;10.90;4.32;;;;;;;3.98;100.00;100820.81;6036252;28;20038;-71
2022/11/28 03:31:46;;;;;;;7.72;3.67;;;;;;;4.06;99.93;100824.59;6044903;28;20038;-71
2022/11/28 03:34:45;;;;;;;8.52;3.88;;;;;;;4.07;99.50;100826.31;6045453;28;20352;-71
2022/11/28 03:37:44;;;;;;;10.82;3.92;;;;;;;3.98;99.46;100816.41;6043964;28;20128;-71
2022/11/28 03:40:42;;;;;;;11.27;3.97;;;;;;;4.00;99.50;100818.91;6043587;28;20042;-71
2022/11/28 03:43:42;;;;;;;11.20;4.00;;;;;;;4.03;98.59;100813.47;6046508;28;20026;-71
2022/11/28 03:46:43;;;;;;;11.25;3.95;;;;;;;4.06;98.70;100814.13;6048575;28;20069;-72
2022/11/28 03:49:41;;;;;;;10.00;4.00;;;;;;;4.07;97.86;100818.44;6048641;28;20385;-70
2022/11/28 03:52:41;;;;;;;11.25;4.18;;;;;;;4.13;97.77;100832.91;6048217;28;20109;-71
2022/11/28 03:55:41;;;;;;;8.15;3.50;;;;;;;4.13;97.44;100822.44;6049552;28;20037;-71
2022/11/28 03:58:40;;;;;;;11.75;3.80;;;;;;;4.12;97.31;100818.13;6048655;28;20029;-71
2022/11/28 04:01:46;;;;;;;10.00;3.63;;;;;;;4.10;96.91;100801.63;6047427;28;20045;-70
2022/11/28 04:04:51;;;;;;;13.68;4.22;;;;;;;4.15;97.35;100802.16;6045310;28;20500;-70
2022/11/28 04:07:57;;;;;;;9.27;3.60;;;;;;;4.15;96.70;100803.00;6048582;28;20061;-71
2022/11/28 04:11:00;;;;;;;9.02;3.78;;;;;;;4.15;96.17;100791.66;6048771;28;20033;-70
2022/11/28 04:14:03;;;;;;;9.55;3.92;;;;;;;4.10;96.61;100791.97;6047882;28;20038;-70
2022/11/28 04:17:02;;;;;;;8.25;4.22;;;;;;;4.15;96.50;100791.66;6049582;28;20038;-71
2022/11/28 04:20:05;;;;;;;9.13;3.50;;;;;;;4.16;96.29;100788.09;6043269;28;20041;-71
2022/11/28 04:23:05;;;;;;;7.25;3.35;;;;;;;4.16;95.55;100765.31;6048162;28;20497;-70
2022/11/28 04:26:06;;;;;;;9.02;3.83;;;;;;;4.20;93.81;100755.44;6048174;28;20025;-70
2022/11/28 04:29:05;;;;;;;6.95;3.50;;;;;;;4.33;93.94;100753.66;6047878;28;20034;-71
2022/11/28 04:32:01;;;;;;;8.60;3.70;;;;;;;4.38;92.66;100758.59;6047544;28;20037;-71
2022/11/28 04:35:02;;;;;;;6.35;2.95;;;;;;;4.28;92.65;100745.28;6048749;28;20042;-71
2022/11/28 04:37:58;;;;;;;10.05;3.60;;;;;;;4.40;92.24;100769.84;6047191;28;20037;-70
2022/11/28 04:41:21;;;;;;;8.65;3.88;;;;;;;4.41;91.75;100772.34;6048225;28;20034;-71
2022/11/28 04:44:47;;;;;;;9.27;3.13;;;;;;;4.34;91.90;100760.59;6046989;28;20120;-70
2022/11/28 04:47:43;;;;;;;7.13;3.20;;;;;;;4.28;92.00;100771.53;6048393;28;20385;-70
2022/11/28 04:51:16;;;;;;;8.50;3.25;;;;;;;4.32;92.68;100772.97;6048227;28;20037;-70
2022/11/28 04:54:24;;;;;;;8.50;3.20;;;;;;;4.21;92.83;100749.28;6002558;28;20195;-71
2022/11/28 04:57:25;;;;;;;10.02;3.28;;;;;;;4.27;93.67;100761.94;6062363;28;20429;-71
2022/11/28 05:00:21;;;;;;;8.27;3.22;;;;;;;4.24;92.95;100764.78;6046491;28;20046;-70
2022/11/28 05:03:17;;;;;;;9.55;3.45;;;;;;;4.18;93.50;100755.53;6048046;28;20030;-70
2022/11/28 05:06:23;;;;;;;7.82;3.22;;;;;;;4.12;93.87;100750.75;6046395;28;20477;-71
2022/11/28 05:09:18;;;;;;;9.30;3.80;;;;;;;4.10;93.53;100762.28;6048294;28;20470;-70
2022/11/28 05:12:13;;;;;;;9.07;3.72;;;;;;;4.13;93.88;100756.81;6047498;28;20041;-70
2022/11/28 05:15:10;;;;;;;9.93;3.80;;;;;;;4.12;93.90;100755.13;6048464;28;20136;-70
2022/11/28 05:18:05;;;;;;;9.18;3.35;;;;;;;4.11;94.69;100753.44;6048164;28;20288;-71
2022/11/28 05:21:01;;;;;;;10.65;4.40;;;;;;;4.09;94.16;100760.59;6047428;28;20106;-70
2022/11/28 05:23:56;;;;;;;12.45;3.97;;;;;;;4.02;94.64;100752.28;6047534;28;20045;-70
2022/11/28 05:26:51;;;;;;;11.20;4.47;;;;;;;4.02;94.22;100760.16;6047545;28;20034;-70
2022/11/28 05:29:47;;;;;;;11.13;4.70;;;;;;;3.97;95.40;100745.66;6047910;28;20326;-70
2022/11/28 05:32:42;;;;;;;13.53;4.90;;;;;;;3.94;95.12;100757.19;6045776;28;20496;-70
2022/11/28 05:35:38;;;;;;;10.63;4.60;;;;;;;3.95;95.19;100761.50;6047536;28;20077;-70
2022/11/28 05:38:34;;;;;;;13.70;5.50;;;;;;;3.97;95.45;100761.41;6046828;28;20033;-70
2022/11/28 05:41:30;;;;;;;10.63;5.13;;;;;;;3.90;95.87;100747.03;6045085;28;20092;-70
2022/11/28 05:44:26;;;;;;;15.20;5.35;;;;;;;3.94;95.83;100756.38;6047500;28;20042;-70
2022/11/28 05:47:24;;;;;;;11.17;4.77;;;;;;;3.93;95.64;100757.31;6053206;28;20049;-70
2022/11/28 05:50:19;;;;;;;12.25;4.60;;;;;;;3.87;96.24;100752.47;6046201;28;20281;-70
2022/11/28 05:53:14;;;;;;;11.13;4.77;;;;;;;3.96;96.19;100757.13;6047128;28;20438;-70
2022/11/28 05:56:12;;;;;;;10.87;4.90;;;;;;;3.95;95.85;100747.56;6047089;28;20070;-70
2022/11/28 05:59:07;;;;;;;11.30;4.65;;;;;;;3.92;96.05;100732.03;6046757;28;20496;-70
2022/11/28 06:02:03;;;;;;;10.93;4.43;;;;;;;3.82;96.05;100721.31;6046390;28;20038;-70
2022/11/28 06:04:58;;;;;;;12.80;5.43;;;;;;;3.90;95.99;100731.28;6047298;28;20050;-70
2022/11/28 06:07:53;;;;;;;11.63;4.30;;;;;;;3.92;96.04;100737.25;6046913;28;20120;-71
2022/11/28 06:10:55;;;;;;;10.53;4.47;;;;;;;3.92;95.81;100732.03;6046148;28;20046;-70
2022/11/28 06:13:51;;;;;;;13.52;5.20;;;;;;;3.87;96.04;100734.13;6047053;28;20034;-71
2022/11/28 06:16:46;;;;;;;8.93;4.43;;;;;;;3.87;95.88;100723.63;6046685;28;20145;-70
2022/11/28 06:19:41;;;;;;;13.00;4.53;;;;;;;3.91;95.47;100728.59;6046482;28;20331;-70
2022/11/28 06:22:37;;;;;;;11.90;4.33;;;;;;;3.95;95.06;100747.56;6046426;28;20168;-70
2022/11/28 06:25:32;;;;;;;10.87;5.03;;;;;;;3.85;95.78;100736.00;6046495;28;20033;-70
2022/11/28 06:28:27;;;;;;;12.10;4.43;;;;;;;3.82;95.05;100736.22;6046166;28;20038;-70
2022/11/28 06:31:26;;;;;;;11.60;4.47;;;;;;;3.80;95.88;100735.47;6045512;28;20061;-71
2022/11/28 06:34:22;;;;;;;15.63;5.80;;;;;;;3.76;96.05;100728.75;6046773;28;20300;-70
2022/11/28 06:37:18;;;;;;;13.85;4.30;;;;;;;3.72;95.52;100733.38;6041789;28;20030;-70
2022/11/28 06:40:13;;;;;;;13.60;5.70;;;;;;;3.74;95.95;100738.50;6040473;28;20041;-70
2022/11/28 06:43:09;;;;;;;11.10;4.75;;;;;;;3.69;95.55;100741.44;6046417;28;20722;-70
2022/11/28 06:46:05;;;;;;;12.60;5.53;;;;;;;3.69;96.93;100741.44;6046157;28;20033;-70
2022/11/28 06:49:00;;;;;;;11.63;4.75;;;;;;;3.73;96.29;100753.41;6046506;28;20045;-71
2022/11/28 06:51:55;;;;;;;19.05;6.22;;;;;;;3.71;97.16;100749.19;6045238;28;20072;-70
2022/11/28 06:54:51;;;;;;;13.50;5.35;;;;;;;3.63;96.91;100725.25;6045599;28;20033;-71
2022/11/28 06:57:46;;;;;;;13.03;6.37;;;;;;;3.69;96.97;100727.50;6036851;28;20029;-70
2022/11/28 07:00:41;;;;;;;14.43;4.40;;;;;;;3.82;95.79;100744.09;6037690;28;20100;-70
2022/11/28 07:03:38;;;;;;;9.87;4.53;;;;;;;3.78;95.92;100729.50;6043372;28;20501;-71
2022/11/28 07:06:33;;;;;;;12.68;4.63;;;;;;;3.80;95.05;100730.25;6045306;28;20026;-70
2022/11/28 07:09:29;;;;;;;11.90;4.85;;;;;;;3.91;95.53;100746.94;6045143;28;20381;-71
2022/11/28 07:12:25;;;;;;;10.07;4.60;;;;;;;3.94;95.48;100756.38;6045545;28;20034;-70
2022/11/28 07:15:21;;;;;;;12.13;4.47;;;;;;;3.93;94.95;100754.69;6045551;28;20073;-71
2022/11/28 07:18:16;;;;;;;9.07;4.00;;;;;;;3.92;95.07;100768.75;6047086;28;20494;-71
2022/11/28 07:21:13;;;;;;;11.07;4.73;;;;;;;3.88;95.40;100756.78;6050150;28;20529;-70
2022/11/28 07:24:08;;;;;;;9.18;3.63;;;;;;;3.84;94.62;100756.16;6049476;28;20268;-71
2022/11/28 07:27:04;;;;;;;8.87;4.00;;;;;;;3.87;95.02;100760.34;6050620;28;20029;-70
2022/11/28 07:29:59;;;;;;;9.93;4.43;;;;;;;3.94;94.20;100764.25;6050154;28;20057;-70
2022/11/28 07:32:54;;;;;;;11.67;4.50;;;;;;;4.02;94.13;100791.63;6049788;28;20088;-71
2022/11/28 07:35:50;;;;;;;13.40;5.53;;;;;;;3.97;94.64;100788.47;6050253;28;20381;-70
2022/11/28 07:38:50;;;;;;;12.27;5.00;;;;;;;3.95;94.87;100784.28;6050170;28;20474;-72
2022/11/28 07:41:45;;;;;;;11.15;4.93;;;;;;;4.00;93.70;100783.03;6049257;28;20096;-72
2022/11/28 07:44:40;;;;;;;11.93;5.00;;;;;;;4.00;94.42;100777.78;6049713;28;20061;-70
2022/11/28 07:47:37;;;;;;;9.07;4.17;;;;;;;4.06;93.98;100779.16;6049512;28;20026;-71
2022/11/28 07:50:32;;;;;;;10.48;4.53;;;;;;;4.12;93.22;100770.88;6048738;28;20036;-71
2022/11/28 07:53:27;;;;;;;12.07;4.55;;;;;;;4.04;93.55;100767.94;6050118;28;20413;-70
2022/11/28 07:56:26;;;;;;;11.23;4.47;;;;;;;4.14;93.50;100769.84;6049848;28;20152;-72
2022/11/28 07:59:21;;;;;;;12.43;4.75;;;;;;;4.06;94.32;100761.63;6049508;28;20037;-71
2022/11/28 08:02:17;;;;;;;11.32;4.25;;;;;;;4.11;93.61;100749.03;6049767;28;20030;-71
2022/11/28 08:05:12;;;;;;;11.15;3.88;;;;;;;4.10;94.00;100757.03;6049480;28;20755;-72
2022/11/28 08:08:08;;;;;;;10.90;4.43;;;;;;;4.12;93.15;100755.97;6049538;28;20075;-71
2022/11/28 08:11:05;;;;;;;8.60;4.73;;;;;;;4.17;92.86;100758.28;6048765;28;20080;-71
2022/11/28 08:14:01;;;;;;;14.30;5.30;;;;;;;4.14;92.97;100756.72;6041456;28;20037;-70
2022/11/28 08:16:57;;;;;;;14.10;5.00;;;;;;;4.21;92.88;100770.28;6049515;28;20042;-72
2022/11/28 08:19:52;;;;;;;10.10;4.23;;;;;;;4.20;93.50;100758.06;6054608;28;20067;-71
2022/11/28 08:22:47;;;;;;;16.37;5.37;;;;;;;4.19;93.83;100756.38;6048574;28;20037;-70
2022/11/28 08:25:43;;;;;;;12.18;4.28;;;;;;;4.20;93.55;100773.81;6047683;28;20277;-70
2022/11/28 08:28:39;;;;;;;11.97;4.67;;;;;;;4.27;93.81;100772.44;6048327;28;20132;-71
2022/11/28 08:31:37;;;;;;;10.13;4.88;;;;;;;4.25;93.66;100760.38;6047175;28;20033;-72
2022/11/28 08:34:32;;;;;;;10.95;4.55;;;;;;;4.23;94.98;100760.50;6048350;28;20109;-71
2022/11/28 08:37:28;;;;;;;11.87;5.63;;;;;;;4.07;95.92;100738.88;6048265;28;20029;-71
2022/11/28 08:40:23;;;;;;;12.57;5.00;;;;;;;4.12;96.09;100760.38;6048179;28;20326;-71
2022/11/28 08:43:18;;;;;;;13.57;5.03;;;;;;;3.99;96.90;100738.56;6047069;28;20038;-72
2022/11/28 08:46:16;;;;;;;13.20;5.27;;;;;;;4.00;97.34;100745.47;6040084;28;20034;-72
2022/11/28 08:49:11;;;;;;;12.07;5.93;;;;;;;4.02;97.70;100756.72;6044556;28;20125;-71
2022/11/28 08:52:07;;;;;;;13.20;5.85;;;;;;;4.05;97.46;100759.13;6042071;28;20033;-71
2022/11/28 08:55:02;;;;;;;15.40;5.37;;;;;;;4.11;98.18;100766.56;6048036;28;20056;-71
2022/11/28 08:57:58;;;;;;;12.13;5.35;;;;;;;4.02;98.07;100769.84;6048044;28;20061;-71
2022/11/28 09:00:53;;;;;;;14.23;5.33;;;;;;;4.00;98.48;100767.28;6045505;28;20030;-71
2022/11/28 09:03:49;;;;;;;13.13;5.10;;;;;;;4.09;98.88;100768.47;6047699;28;20030;-72
2022/11/28 09:06:44;;;;;;;13.75;5.68;;;;;;;4.10;99.06;100772.78;6048584;28;20558;-70
2022/11/28 09:09:40;;;;;;;10.50;4.67;;;;;;;4.04;99.27;100752.19;6047181;28;20069;-71
2022/11/28 09:12:35;;;;;;;13.83;6.63;;;;;;;4.01;98.67;100771.59;6045557;28;20038;-72
2022/11/28 09:15:31;;;;;;;12.13;5.10;;;;;;;4.08;98.30;100769.38;6045733;28;20057;-71
2022/11/28 09:18:26;;;;;;;19.65;6.55;;;;;;;4.09;98.50;100776.34;6046067;28;20591;-72
2022/11/28 09:21:22;;;;;;;14.80;6.17;;;;;;;4.05;98.28;100764.38;6045049;28;20656;-70
2022/11/28 09:24:17;;;;;;;12.48;5.55;;;;;;;4.07;97.77;100765.09;6045986;28;20304;-70
2022/11/28 09:27:13;;;;;;;15.20;5.40;;;;;;;4.14;97.29;100777.69;6047261;28;20325;-71
2022/11/28 09:30:08;;;;;;;13.60;5.50;;;;;;;4.20;97.41;100781.69;6047131;28;20045;-71
2022/11/28 09:33:04;;;;;;;13.18;5.28;;;;;;;4.22;96.92;100769.31;6046021;28;20026;-70
2022/11/28 09:36:04;;;;;;;11.03;5.07;;;;;;;4.21;97.04;100775.50;6047160;28;20121;-72
2022/11/28 09:38:59;;;;;;;14.93;5.70;;;;;;;4.14;96.91;100758.50;6039187;28;20284;-71
2022/11/28 09:42:05;;;;;;;11.23;5.55;;;;;;;4.30;96.36;100774.88;6045734;28;20044;-71
2022/11/28 09:45:04;;;;;;;14.98;6.53;;;;;;;4.22;95.93;100771.94;6047362;28;20030;-71
2022/11/28 09:48:39;;;;;;;11.98;4.75;;;;;;;4.34;96.46;100781.59;6045934;28;20034;-71
2022/11/28 09:51:57;;;;;;;12.07;5.22;;;;;;;4.42;95.54;100781.91;6041457;28;21551;-71
2022/11/28 09:55:04;;;;;;;13.38;5.00;;;;;;;4.35;95.07;100769.31;6038242;28;20628;-71
2022/11/28 09:58:04;;;;;;;12.57;5.32;;;;;;;4.43;95.05;100780.94;6044297;28;20548;-71
2022/11/28 10:01:18;;;;;;;12.63;5.13;;;;;;;4.48;94.76;100784.13;6046494;28;20180;-70
2022/11/28 10:04:44;;;;;;;14.40;5.38;;;;;;;4.46;94.57;100786.00;6044757;28;20473;-70
2022/11/28 10:08:18;;;;;;;10.70;5.07;;;;;;;4.62;93.90;100781.38;6056730;28;20099;-71
2022/11/28 10:11:32;;;;;;;10.30;4.72;;;;;;;4.78;93.94;100787.22;6046475;28;20042;-71
2022/11/28 10:14:56;;;;;;;12.45;5.38;;;;;;;4.73;93.20;100783.25;6045678;28;20033;-72
2022/11/28 10:18:02;;;;;;;10.70;4.72;;;;;;;4.71;92.42;100770.22;6038289;28;20041;-71
2022/11/28 10:21:02;;;;;;;12.05;4.45;;;;;;;4.86;92.29;100772.72;6041768;28;20030;-70
2022/11/28 10:24:01;;;;;;;10.77;5.05;;;;;;;4.80;91.69;100753.00;6043953;28;20377;-71
2022/11/28 10:26:58;;;;;;;11.10;4.85;;;;;;;4.87;91.80;100758.63;6044611;28;20050;-71
2022/11/28 10:30:00;;;;;;;12.95;6.25;;;;;;;4.89;89.77;100767.25;6045599;28;20033;-71
2022/11/28 10:33:04;;;;;;;14.13;5.38;;;;;;;4.94;90.83;100760.75;6043964;28;20484;-71
2022/11/28 10:36:00;;;;;;;14.82;5.38;;;;;;;4.84;90.42;100743.13;6045297;28;20072;-72
2022/11/28 10:38:56;;;;;;;13.15;5.05;;;;;;;4.93;90.60;100747.69;6061156;28;20064;-70
2022/11/28 10:42:10;;;;;;;12.98;5.05;;;;;;;5.04;90.23;100751.25;6044203;28;20057;-71
2022/11/28 10:45:28;;;;;;;12.52;5.32;;;;;;;4.97;90.54;100749.16;6046612;28;20121;-70
2022/11/28 10:48:43;;;;;;;27.52;11.38;;;;;;;5.04;90.41;100755.66;6041753;28;20022;-70
2022/11/28 10:52:00;;;;;;;24.13;11.82;;;;;;;5.11;90.09;100751.66;6053223;28;20022;-71
2022/11/28 10:55:19;;;;;;;16.90;9.23;;;;;;;5.07;89.95;100731.78;6044930;28;20033;-71
2022/11/28 10:58:20;;;;;;;14.23;7.32;;;;;;;5.11;90.00;100754.28;6043288;28;20037;-71
2022/11/28 11:01:16;;;;;;;14.68;5.47;;;;;;;4.98;89.35;100735.91;6045376;28;20095;-71
2022/11/28 11:04:17;;;;;;;12.77;6.20;;;;;;;5.08;89.54;100742.16;6045924;28;20064;-70
2022/11/28 11:07:17;;;;;;;14.23;7.68;;;;;;;5.17;90.59;100735.41;6044771;28;20038;-70
2022/11/28 11:10:25;;;;;;;12.90;6.22;;;;;;;5.15;89.97;100738.16;6059129;28;20038;-70
2022/11/28 11:13:31;;;;;;;13.25;6.05;;;;;;;5.08;90.00;100720.34;6033342;28;20028;-70
2022/11/28 11:16:49;;;;;;;15.52;8.10;;;;;;;5.24;90.46;100736.66;6041434;28;20545;-72
2022/11/28 11:19:45;;;;;;;21.10;7.30;;;;;;;5.32;89.66;100731.69;6045683;28;20484;-71
2022/11/28 11:22:53;;;;;;;12.67;5.40;;;;;;;5.43;89.85;100724.66;6045176;28;20042;-71
2022/11/28 11:25:54;;;;;;;13.00;5.57;;;;;;;5.37;88.67;100719.88;6042581;28;20045;-70
2022/11/28 11:28:50;;;;;;;9.32;4.95;;;;;;;5.34;88.91;100719.25;6038606;28;20471;-70
2022/11/28 11:31:50;;;;;;;9.30;4.63;;;;;;;5.46;87.84;100736.78;6044836;28;20026;-72
2022/11/28 11:34:45;;;;;;;15.82;5.47;;;;;;;5.37;87.64;100719.88;6043520;28;20061;-71
2022/11/28 11:37:40;;;;;;;11.27;5.13;;;;;;;5.43;87.79;100727.28;6044085;28;20453;-71
2022/11/28 11:40:36;;;;;;;10.17;4.37;;;;;;;5.32;88.33;100718.53;6044389;28;20112;-71
2022/11/28 11:43:34;;;;;;;11.53;6.10;;;;;;;5.52;89.09;100717.91;6045306;28;20026;-70
2022/11/28 11:46:29;;;;;;;11.35;5.03;;;;;;;5.46;88.43;100710.47;6044713;28;20578;-71
2022/11/28 11:49:32;;;;;;;14.33;4.97;;;;;;;5.62;88.20;100724.16;6045253;28;20029;-70
2022/11/28 11:52:27;;;;;;;15.20;5.22;;;;;;;5.72;88.11;100727.78;6043088;28;20088;-71
2022/11/28 11:55:24;;;;;;;11.68;4.30;;;;;;;5.66;87.18;100716.88;6045077;28;20104;-70
2022/11/28 11:58:47;;;;;;;11.82;4.65;;;;;;;5.77;86.71;100722.16;6044048;28;20038;-70
2022/11/28 12:01:44;;;;;;;11.40;5.00;;;;;;;5.71;87.36;100731.34;6041336;28;20038;-70
2022/11/28 12:04:42;;;;;;;10.60;4.78;;;;;;;5.71;86.50;100730.50;6045862;28;20037;-71
2022/11/28 12:07:54;;;;;;;11.13;5.43;;;;;;;5.71;87.08;100726.09;6048339;28;20044;-70
2022/11/28 12:11:02;;;;;;;11.07;5.72;;;;;;;5.67;87.25;100729.06;6048933;28;20048;-70
2022/11/28 12:14:04;;;;;;;11.35;5.30;;;;;;;5.60;86.90;100707.63;6048689;28;20026;-71
2022/11/28 12:17:36;;;;;;;7.82;4.10;;;;;;;5.63;86.97;100723.19;6048239;28;20038;-72
2022/11/28 12:20:52;;;;;;;10.18;5.22;;;;;;;5.50;87.60;100705.81;6048120;28;20030;-70
2022/11/28 12:24:07;;;;;;;10.32;5.47;;;;;;;5.54;87.77;100702.88;6048872;28;20055;-71
2022/11/28 12:27:06;;;;;;;15.70;5.88;;;;;;;5.58;87.85;100712.19;6047275;28;20034;-70
2022/11/28 12:30:17;;;;;;;12.73;5.00;;;;;;;5.64;87.62;100703.00;6047438;28;20499;-72
2022/11/28 12:33:31;;;;;;;15.55;7.95;;;;;;;5.77;87.67;100715.13;6047490;28;20041;-71
2022/11/28 12:36:29;;;;;;;14.82;7.80;;;;;;;5.84;87.03;100718.94;6049102;28;20478;-71
2022/11/28 12:39:43;;;;;;;10.80;5.25;;;;;;;5.91;86.85;100711.47;6049383;28;20064;-70
2022/11/28 12:43:03;;;;;;;12.05;5.80;;;;;;;5.85;86.80;100710.16;6046409;28;20026;-71
2022/11/28 12:46:13;;;;;;;13.02;5.68;;;;;;;5.89;86.87;100714.25;6043037;28;20044;-71
2022/11/28 12:49:47;;;;;;;14.05;9.30;;;;;;;5.92;86.72;100719.25;6047144;28;20056;-71
2022/11/28 12:53:00;;;;;;;13.48;5.90;;;;;;;6.08;85.64;100723.34;6047803;28;20026;-72
2022/11/28 12:56:20;;;;;;;11.73;5.28;;;;;;;6.01;85.86;100716.91;6048716;28;20042;-71
2022/11/28 12:59:24;;;;;;;17.35;5.75;;;;;;;5.85;87.00;100701.41;6040363;28;20430;-71
2022/11/28 13:02:26;;;;;;;13.55;5.20;;;;;;;5.81;86.83;100708.69;6047236;28;20050;-71
2022/11/28 13:05:33;;;;;;;12.18;5.45;;;;;;;5.70;86.44;100698.13;6048377;28;20038;-71
2022/11/28 13:08:43;;;;;;;15.52;5.55;;;;;;;5.83;86.53;100717.28;6046664;28;20033;-71
2022/11/28 13:11:50;;;;;;;13.40;6.55;;;;;;;5.86;86.95;100714.47;6047700;28;20385;-72
2022/11/28 13:14:45;;;;;;;11.25;5.03;;;;;;;5.72;86.54;100685.69;6047910;28;20034;-70
2022/11/28 13:17:55;;;;;;;11.60;5.63;;;;;;;5.91;86.25;100711.47;6046897;28;20045;-71
2022/11/28 13:21:12;;;;;;;10.30;4.93;;;;;;;5.83;86.48;100714.66;6048442;28;20045;-71
2022/11/28 13:24:25;;;;;;;10.55;5.25;;;;;;;5.72;86.56;100717.25;6055894;28;20516;-72
2022/11/28 13:27:37;;;;;;;11.70;5.05;;;;;;;5.72;87.03;100722.53;6046868;28;20140;-71
2022/11/28 13:30:42;;;;;;;12.27;5.50;;;;;;;5.89;87.70;100721.28;6046993;28;20092;-70
2022/11/28 13:33:50;;;;;;;12.15;4.40;;;;;;;5.94;86.60;100712.09;6047758;28;20034;-70
2022/11/28 13:37:02;;;;;;;11.68;4.95;;;;;;;5.89;86.74;100708.97;6045789;28;20052;-71
2022/11/28 13:40:12;;;;;;;13.10;5.20;;;;;;;5.71;87.43;100710.31;6046749;28;20505;-72
2022/11/28 13:43:15;;;;;;;13.55;5.40;;;;;;;5.83;87.01;100717.28;6046252;28;20584;-70
2022/11/28 13:46:10;;;;;;;11.55;5.00;;;;;;;5.76;87.47;100702.91;6046492;28;20033;-70
2022/11/28 13:49:25;;;;;;;13.07;5.65;;;;;;;5.78;87.58;100719.44;6046072;28;20537;-70
2022/11/28 13:52:24;;;;;;;12.50;5.45;;;;;;;5.93;87.06;100718.31;6045586;28;20579;-71
2022/11/28 13:55:38;;;;;;;13.95;6.90;;;;;;;5.78;86.93;100723.84;6046996;28;20061;-70
2022/11/28 13:58:39;;;;;;;9.95;4.93;;;;;;;5.73;87.77;100721.59;6038845;28;20085;-70
2022/11/28 14:01:45;;;;;;;12.55;5.35;;;;;;;5.57;87.86;100713.13;6042430;28;20030;-70
2022/11/28 14:04:42;;;;;;;15.75;5.80;;;;;;;5.52;88.04;100709.19;6041408;28;20473;-71
2022/11/28 14:07:37;;;;;;;12.02;4.85;;;;;;;5.48;89.21;100711.19;6045603;28;20025;-71